Latest Weather Observations for Warwick

IDQ60801

Issued at 3:05 pm EST Friday 25 April 2014 (issued every 30 minutes, with the page automatically refreshed every 10 minutes)

About weather observations | Map of weather stations | Latest weather observations for QLD | Other Formats
Station Details ID: 041525 Name: WARWICK Lat: -28.21 Lon: 152.10 Height: 475.4 m
Data from the previous 72 hours. | See also: Recent months at Warwick
Date/Time
EST
Temp
°C
App
Temp
°C
Dew
Point
Rel
Hum
%
Delta-T
°C
Wind Press
QNH
hPa
Press
MSL
hPa
Rain
since 9 am
mm
Dir
 
Spd
km/h
Gust
km/h
Spd
kts
Gust
kts
25/03:00pm 26.8 23.6 4.9 24 11.4 SE 11 20 6 11 1016.4 1015.0 0.0
25/02:30pm 26.6 22.7 3.2 22 11.8 ESE 13 20 7 11 1016.3 - 0.0
25/02:00pm 26.5 23.0 3.4 22 11.7 SE 11 19 6 10 1016.5 - 0.0
25/01:30pm 26.9 23.7 6.9 28 10.8 SE 13 26 7 14 1017.0 - 0.0
25/01:00pm 26.8 22.8 4.9 24 11.4 SE 15 30 8 16 1017.4 - 0.0
25/12:30pm 26.3 23.4 8.3 32 9.9 ESE 13 24 7 13 1017.9 - 0.0
25/12:00pm 26.4 24.5 9.0 33 9.7 ESE 9 20 5 11 1018.3 1016.9 0.0
25/11:30am 25.7 23.6 8.4 33 9.5 SE 9 19 5 10 1018.8 - 0.0
25/11:00am 25.2 24.1 10.1 38 8.5 SE 6 13 3 7 1019.4 - 0.0
25/10:30am 24.0 23.6 12.3 48 6.8 SSE 6 11 3 6 1019.8 - 0.0
25/10:00am 22.1 23.1 13.2 57 5.2 CALM 0 0 0 0 1020.1 - 0.0
25/09:30am 20.1 21.0 13.0 63 4.1 CALM 0 7 0 4 1020.4 - 0.0
25/09:00am 17.8 17.6 11.9 68 3.3 SSW 4 9 2 5 1020.4 1019.0 0.0
25/08:30am 16.2 16.7 11.7 74 2.5 CALM 0 0 0 0 1020.2 - 0.0
25/08:00am 15.1 15.5 11.1 77 2.2 CALM 0 0 0 0 1020.1 - 0.0
25/07:30am 12.9 13.1 10.6 86 1.2 CALM 0 0 0 0 1019.7 - 0.0
25/07:00am 10.6 10.4 9.2 91 0.7 CALM 0 0 0 0 1019.2 - 0.0
25/06:30am 9.9 9.7 9.1 95 0.4 CALM 0 0 0 0 1018.6 - 0.0
25/06:00am 9.6 9.4 9.0 96 0.3 W 0 0 0 0 1018.3 1016.9 0.0
25/05:30am 8.6 8.2 8.4 99 0.1 CALM 0 0 0 0 1017.9 - 0.0
25/05:00am 9.1 8.7 8.3 95 0.4 CALM 0 0 0 0 1017.5 - 0.0
25/04:30am 10.1 10.0 9.5 96 0.3 CALM 0 0 0 0 1017.2 - 0.0
25/04:00am 10.5 10.3 9.1 91 0.7 CALM 0 0 0 0 1017.4 - 0.0
25/03:30am 10.7 10.6 9.3 91 0.7 CALM 0 0 0 0 1017.4 - 0.0
25/03:00am 11.2 11.3 10.2 94 0.5 CALM 0 0 0 0 1017.2 1015.8 0.0
25/02:30am 11.4 11.6 10.5 94 0.5 CALM 0 0 0 0 1017.1 - 0.0
25/02:00am 11.3 11.5 10.7 96 0.3 CALM 0 0 0 0 1017.2 - 0.0
25/01:30am 12.3 12.8 11.6 95 0.4 CALM 0 0 0 0 1017.5 - 0.0
25/01:00am 12.7 13.2 11.6 93 0.6 CALM 0 0 0 0 1017.7 - 0.0
25/12:30am 12.7 13.1 11.2 91 0.8 CALM 0 0 0 0 1017.9 - 0.0
25/12:00am 13.2 13.6 11.2 88 1.1 WSW 0 0 0 0 1018.1 1016.6 0.0
 
Date/Time
EST
Temp
°C
App
Temp
°C
Dew
Point
Rel
Hum
%
Delta-T
°C
Wind Press
QNH
hPa
Press
MSL
hPa
Rain
since 9 am
mm
Dir
 
Spd
km/h
Gust
km/h
Spd
kts
Gust
kts
24/11:30pm 13.9 14.4 11.5 85 1.3 CALM 0 0 0 0 1018.0 - 0.0
24/11:00pm 13.9 14.4 11.7 86 1.2 CALM 0 0 0 0 1018.1 - 0.0
24/10:30pm 13.9 14.5 11.9 88 1.1 CALM 0 0 0 0 1017.8 - 0.0
24/10:00pm 14.1 14.1 9.9 76 2.2 CALM 0 0 0 0 1017.9 - 0.0
24/09:30pm 15.7 16.7 13.1 84 1.5 CALM 0 0 0 0 1017.7 - 0.0
24/09:00pm 16.0 15.4 12.2 78 2.1 NNE 7 9 4 5 1017.8 1016.3 0.0
24/08:30pm 16.2 16.9 12.1 76 2.3 CALM 0 0 0 0 1017.6 - 0.0
24/08:00pm 16.6 17.3 12.3 76 2.4 CALM 0 0 0 0 1017.2 - 0.0
24/07:30pm 18.9 17.9 12.2 65 3.8 NE 9 13 5 7 1016.9 - 0.0
24/07:00pm 20.1 18.8 12.4 61 4.4 NNE 11 13 6 7 1016.5 - 0.0
24/06:30pm 21.2 19.4 12.1 56 5.2 NNE 13 15 7 8 1015.9 - 0.0
24/06:00pm 22.7 21.0 12.6 53 5.9 NNE 13 17 7 9 1015.8 1014.3 0.0
24/05:30pm 22.3 21.7 10.3 46 6.7 NE 4 9 2 5 1015.4 - 0.0
24/05:00pm 23.1 23.7 12.0 49 6.4 CALM 0 0 0 0 1014.9 - 0.0
24/04:30pm 25.9 23.8 8.2 32 9.7 NNE 9 11 5 6 1014.8 - 0.0
24/04:00pm 26.6 23.5 7.2 29 10.5 NE 13 17 7 9 1014.6 - 0.0
24/03:30pm 26.8 25.4 8.9 32 10.0 SSW 6 20 3 11 1014.6 - 0.0
24/03:00pm 27.2 26.2 9.0 31 10.2 NNW 4 9 2 5 1014.6 1013.2 0.0
24/02:30pm 27.1 25.7 9.6 33 9.9 SW 7 19 4 10 1014.6 - 0.0
24/02:00pm 26.7 25.7 9.0 32 9.9 S 4 13 2 7 1014.9 - 0.0
24/01:30pm 26.4 24.9 6.9 29 10.5 S 4 9 2 5 1015.4 - 0.0
24/01:00pm 26.1 25.0 10.0 36 9.1 W 6 9 3 5 1015.8 - 0.0
24/12:30pm 25.8 24.9 10.8 39 8.6 WNW 6 11 3 6 1016.1 - 0.0
24/12:00pm 25.1 24.2 11.2 41 8.0 SSE 7 17 4 9 1016.6 1015.2 0.0
24/11:30am 24.5 23.7 13.0 48 6.8 SW 9 15 5 8 1017.2 - 0.0
24/11:00am 24.0 23.3 13.2 50 6.4 SSW 9 15 5 8 1017.8 - 0.0
24/10:30am 23.0 22.6 12.5 51 6.1 W 6 11 3 6 1018.4 - 0.0
24/10:00am 22.3 21.7 12.3 53 5.8 NW 7 13 4 7 1018.8 - 0.0
24/09:30am 21.3 22.0 13.5 61 4.6 NW 2 9 1 5 1019.0 - 0.0
24/09:00am 19.8 19.4 12.5 62 4.2 E 6 9 3 5 1019.1 1017.7 0.0
24/08:30am 16.3 16.7 11.4 73 2.7 CALM 0 0 0 0 1019.0 - 0.0
24/08:00am 14.0 14.2 10.6 80 1.8 CALM 0 0 0 0 1018.8 - 0.0
24/07:30am 13.2 13.3 10.2 82 1.6 CALM 0 0 0 0 1018.5 - 0.0
24/07:00am 10.7 9.3 9.5 92 0.6 NE 7 7 4 4 1018.3 - 0.0
24/06:30am 8.5 6.6 7.7 95 0.4 ENE 7 7 4 4 1018.1 - 0.0
24/06:00am 9.4 9.1 8.8 96 0.3 CALM 0 0 0 0 1018.0 1016.5 0.0
24/05:30am 9.0 8.7 8.6 97 0.2 CALM 0 0 0 0 1017.9 - 0.0
24/05:00am 9.2 8.9 8.8 97 0.2 CALM 0 0 0 0 1017.7 - 0.0
24/04:30am 9.7 9.4 8.5 92 0.6 CALM 0 0 0 0 1017.4 - 0.0
24/04:00am 10.1 10.1 9.7 97 0.2 CALM 0 0 0 0 1017.4 - 0.0
24/03:30am 9.3 8.9 8.1 92 0.6 CALM 0 0 0 0 1017.2 - 0.0
24/03:00am 11.1 11.3 10.5 96 0.3 CALM 0 0 0 0 1017.1 1015.7 0.0
24/02:30am 11.2 11.2 9.9 92 0.7 CALM 0 0 0 0 1017.4 - 0.0
24/02:00am 11.6 11.7 10.3 92 0.7 CALM 0 0 0 0 1017.5 - 0.0
24/01:30am 12.3 12.7 11.2 93 0.6 CALM 0 0 0 0 1017.7 - 0.0
24/01:00am 12.5 12.8 10.8 89 0.9 CALM 0 0 0 0 1017.9 - 0.0
24/12:30am 13.0 13.4 11.3 89 0.9 CALM 0 0 0 0 1018.1 - 0.0
24/12:00am 13.5 13.9 11.3 86 1.2 CALM 0 0 0 0 1018.4 1017.0 0.0
 
Date/Time
EST
Temp
°C
App
Temp
°C
Dew
Point
Rel
Hum
%
Delta-T
°C
Wind Press
QNH
hPa
Press
MSL
hPa
Rain
since 9 am
mm
Dir
 
Spd
km/h
Gust
km/h
Spd
kts
Gust
kts
23/11:30pm 15.1 15.0 10.9 76 2.3 N 2 7 1 4 1018.5 - 0.0
23/11:00pm 15.9 16.0 10.3 69 3.0 CALM 0 0 0 0 1018.7 - 0.0
23/10:30pm 15.8 16.2 11.4 75 2.4 CALM 0 0 0 0 1018.6 - 0.0
23/10:00pm 16.1 16.6 11.6 74 2.5 CALM 0 0 0 0 1018.6 - 0.0
23/09:30pm 16.5 17.0 11.6 73 2.7 CALM 0 0 0 0 1018.6 - 0.0
23/09:00pm 16.6 17.0 11.1 70 3.0 CALM 0 0 0 0 1018.5 1017.1 0.0
23/08:30pm 16.8 17.3 11.6 71 2.9 CALM 0 0 0 0 1018.5 - 0.0
23/08:00pm 17.2 17.6 12.6 74 2.6 NNE 2 6 1 3 1018.3 - 0.0
23/07:30pm 18.0 16.5 10.5 61 4.1 NNE 9 11 5 6 1018.0 - 0.0
23/07:00pm 18.7 16.7 10.3 58 4.6 NE 11 13 6 7 1017.8 - 0.0
23/06:30pm 19.5 17.6 10.4 55 5.0 NNE 11 13 6 7 1017.7 - 0.0
23/06:00pm 21.3 19.0 10.5 50 6.0 NNE 13 17 7 9 1017.4 1015.9 0.0
23/05:30pm 22.7 20.8 11.7 49 6.3 N 13 19 7 10 1016.9 - 0.0
23/05:00pm 23.9 24.3 11.3 45 7.2 CALM 0 0 0 0 1016.6 - 0.0
23/04:30pm 25.3 24.2 9.8 37 8.7 SSW 6 13 3 7 1016.3 - 0.0
23/04:00pm 25.5 25.1 9.9 37 8.8 NNE 2 9 1 5 1016.3 - 0.0
23/03:30pm 25.8 24.6 9.6 36 9.1 SSW 6 9 3 5 1016.3 - 0.0
23/03:00pm 25.7 24.3 9.4 35 9.1 SSW 7 13 4 7 1016.4 1015.0 0.0
23/02:30pm 25.5 24.3 9.6 36 8.9 NNE 6 11 3 6 1016.5 - 0.0
23/02:00pm 24.9 22.6 7.4 32 9.4 ESE 9 17 5 9 1016.8 - 0.0
23/01:30pm 25.2 23.9 9.2 36 8.9 WNW 6 11 3 6 1017.0 - 0.0
23/01:00pm 25.0 23.5 9.1 36 8.8 NNE 7 13 4 7 1017.5 - 0.0
23/12:30pm 24.0 22.7 11.2 44 7.3 SSW 9 15 5 8 1018.1 - 0.0
23/12:00pm 24.0 23.0 11.0 44 7.4 NW 7 17 4 9 1018.7 1017.3 0.0
23/11:30am 23.5 23.0 12.1 48 6.6 W 6 11 3 6 1019.2 - 0.0
23/11:00am 22.5 21.6 11.2 48 6.4 W 7 15 4 8 1019.9 - 0.0
23/10:30am 21.7 20.8 12.7 56 5.2 W 9 15 5 8 1020.5 - 0.0
23/10:00am 20.8 20.5 13.2 61 4.4 SSW 7 13 4 7 1020.8 - 0.0
23/09:30am 19.0 19.0 12.5 66 3.7 SSW 4 9 2 5 1021.0 - 0.0
23/09:00am 17.1 16.5 12.3 73 2.7 SSW 7 11 4 6 1021.1 1019.7 0.0
23/08:30am 15.6 16.4 12.4 81 1.8 CALM 0 0 0 0 1021.1 - 0.0
23/08:00am 13.7 14.2 11.5 86 1.2 CALM 0 7 0 4 1021.0 - 0.0
23/07:30am 11.6 11.9 10.8 95 0.4 CALM 0 6 0 3 1020.9 - 0.0
23/07:00am 9.7 9.6 9.3 97 0.2 CALM 0 0 0 0 1020.7 - 0.0
23/06:30am 10.3 10.3 9.9 97 0.2 CALM 0 0 0 0 1020.6 - 0.0
23/06:00am 10.0 9.9 9.6 97 0.2 CALM 0 0 0 0 1020.4 1019.0 0.0
23/05:30am 9.8 9.7 9.4 97 0.2 CALM 0 0 0 0 1020.1 - 0.0
23/05:00am 9.0 8.7 8.6 97 0.2 CALM 0 7 0 4 1019.7 - 0.0
23/04:30am 9.9 8.7 9.5 97 0.2 NNE 6 7 3 4 1019.6 - 0.0
23/04:00am 11.4 10.3 10.6 95 0.4 NNE 7 11 4 6 1019.3 - 0.0
23/03:30am 10.9 9.7 10.3 96 0.3 NE 7 9 4 5 1019.3 - 0.0
23/03:00am 11.3 11.4 10.3 94 0.5 CALM 0 0 0 0 1019.3 1017.9 0.0
23/02:30am 11.4 11.6 10.6 95 0.4 CALM 0 0 0 0 1019.6 - 0.0
23/02:00am 12.1 12.5 11.4 95 0.4 CALM 0 0 0 0 1019.8 - 0.0
23/01:30am 11.9 12.3 11.2 95 0.4 CALM 0 0 0 0 1019.8 - 0.0
23/01:00am 12.4 12.8 11.1 92 0.7 CALM 0 0 0 0 1019.8 - 0.0
23/12:30am 12.9 13.2 11.0 88 1.0 CALM 0 0 0 0 1020.1 - 0.0
23/12:00am 13.3 13.9 11.8 91 0.8 CALM 0 0 0 0 1020.4 1019.0 0.0
 
Date/Time
EST
Temp
°C
App
Temp
°C
Dew
Point
Rel
Hum
%
Delta-T
°C
Wind Press
QNH
hPa
Press
MSL
hPa
Rain
since 9 am
mm
Dir
 
Spd
km/h
Gust
km/h
Spd
kts
Gust
kts
22/11:30pm 13.7 14.2 11.7 88 1.1 CALM 0 0 0 0 1020.3 - 0.0
22/11:00pm 14.3 15.0 12.1 87 1.2 CALM 0 0 0 0 1020.4 - 0.0
22/10:30pm 15.5 16.4 12.8 84 1.5 CALM 0 0 0 0 1020.6 - 0.0
22/10:00pm 15.7 16.5 12.7 82 1.7 CALM 0 6 0 3 1020.6 - 0.0
22/09:30pm 15.3 16.0 12.1 81 1.8 CALM 0 0 0 0 1020.6 - 0.0
22/09:00pm 15.6 16.5 12.8 83 1.6 CALM 0 0 0 0 1020.5 1019.1 0.0
22/08:30pm 16.3 17.2 13.0 81 1.9 CALM 0 0 0 0 1020.3 - 0.0
22/08:00pm 18.9 16.8 12.4 66 3.7 NNE 15 22 8 12 1020.0 - 0.0
22/07:30pm 19.1 16.9 12.2 64 3.9 NNE 15 20 8 11 1019.8 - 0.0
22/07:00pm 19.5 17.0 12.3 63 4.1 NE 17 20 9 11 1019.6 - 0.0
22/06:30pm 19.7 17.6 12.5 63 4.1 NNE 15 20 8 11 1019.4 - 0.0
22/06:00pm 20.0 17.6 12.5 62 4.3 NE 17 20 9 11 1019.2 1017.8 0.0
22/05:30pm 21.3 18.6 12.9 58 4.9 NE 19 24 10 13 1019.0 - 0.0
22/05:00pm 22.8 20.0 13.3 55 5.6 NNE 20 28 11 15 1018.6 - 0.0
22/04:30pm 24.5 21.8 12.8 48 6.9 NNE 19 24 10 13 1018.6 - 0.0
22/04:00pm 24.9 23.9 12.2 45 7.4 NNW 9 15 5 8 1018.5 - 0.0
22/03:30pm 24.2 25.0 12.4 47 6.9 CALM 0 6 0 3 1018.5 - 0.0

Other Formats:

Comma delimited format used in spreadsheet applications
http://www.bom.gov.au/fwo/IDQ60801/IDQ60801.94555.axf

JavaScript Object Notation format (JSON) in row-major order
http://www.bom.gov.au/fwo/IDQ60801/IDQ60801.94555.json